Latest Weather Observations for Kowen Forest

IDN60801

Issued at 5:22 am EDT Saturday 23 March 2019 (issued every 10 minutes, with the page automatically refreshed every 10 minutes)

About weather observations | Map of weather stations | Latest weather observations for NSW | Other Formats
Station Details ID: 250071 Name: PORTABLE RFSACT03 Lat: -35.31 Lon: 149.32 Height: 720.0 m
Data from the previous 72 hours. | See also: Recent months for locations in New South Wales
Date/Time
EDT
Temp
°C
App
Temp
°C
Dew
Point
°C
Rel
Hum
%
Delta-T
°C
Wind Press
QNH
hPa
Press
MSL
hPa
Rain since
9am
mm
Dir  Spd
km/h
Gust
km/h
Spd
kts
Gust
kts
23/05:10am 9.4 8.5 9.2 99 0.1 N 4 6 2 3 - - 0.0
23/05:00am 10.0 9.3 9.9 99 0.1 NE 4 6 2 3 - - 0.0
23/04:50am 10.0 9.3 9.9 99 0.1 NNE 4 4 2 2 - - 0.0
23/04:40am 9.7 8.9 9.6 99 0.1 NNE 4 6 2 3 - - 0.0
23/04:30am 10.6 10.0 10.5 99 0.1 ENE 4 6 2 3 - - 0.0
23/04:20am 10.8 9.9 10.7 99 0.1 ENE 6 7 3 4 - - 0.0
23/04:10am 10.2 8.9 10.1 99 0.1 NNE 7 9 4 5 - - 0.0
23/04:00am 9.9 8.5 9.7 99 0.1 NE 7 7 4 4 - - 0.0
23/03:50am 10.6 9.5 10.5 99 0.1 ENE 7 9 4 5 - - 0.0
23/03:40am 10.4 9.4 10.3 99 0.1 NE 6 7 3 4 - - 0.0
23/03:30am 9.7 8.9 9.5 99 0.1 N 4 6 2 3 - - 0.0
23/03:20am 10.0 9.6 9.8 99 0.1 E 2 4 1 2 - - 0.0
23/03:10am 10.2 9.9 10.0 99 0.1 NE 2 4 1 2 - - 0.0
23/03:00am 10.3 10.0 10.1 99 0.1 SE 2 2 1 1 - - 0.0
23/02:50am 10.9 10.8 10.8 99 0.1 ENE 2 4 1 2 - - 0.0
23/02:40am 10.4 9.8 10.3 99 0.1 NE 4 4 2 2 - - 0.0
23/02:30am 10.0 8.8 9.7 98 0.2 NE 6 6 3 3 - - 0.0
23/02:20am 10.1 9.4 9.9 99 0.1 NE 4 6 2 3 - - 0.0
23/02:00am 11.2 10.8 11.0 99 0.1 ENE 4 6 2 3 - - 0.0
23/01:50am 11.0 10.9 10.8 99 0.1 NNE 2 4 1 2 - - 0.0
23/01:40am 11.2 10.7 10.9 98 0.2 NE 4 4 2 2 - - 0.0
23/01:30am 11.8 11.9 11.6 99 0.1 ENE 2 4 1 2 - - 0.0
23/01:20am 11.6 11.6 11.3 98 0.2 N 2 2 1 1 - - 0.0
23/01:10am 11.6 11.6 11.3 98 0.2 WNW 2 2 1 1 - - 0.0
23/01:00am 12.1 12.3 11.8 98 0.2 ESE 2 2 1 1 - - 0.0
23/12:50am 12.0 12.2 11.7 98 0.2 SE 2 2 1 1 - - 0.0
23/12:40am 11.9 12.0 11.5 97 0.2 SW 2 2 1 1 - - 0.0
23/12:30am 11.7 11.7 11.3 97 0.2 WNW 2 2 1 1 - - 0.0
23/12:20am 11.9 12.0 11.5 97 0.2 WNW 2 2 1 1 - - 0.0
23/12:10am 11.8 11.8 11.3 97 0.3 NW 2 2 1 1 - - 0.0
23/12:00am 12.1 12.2 11.6 97 0.3 ENE 2 4 1 2 - - 0.0
 
Date/Time
EDT
Temp
°C
App
Temp
°C
Dew
Point
°C
Rel
Hum
%
Delta-T
°C
Wind Press
QNH
hPa
Press
MSL
hPa
Rain since
9am
mm
Dir  Spd
km/h
Gust
km/h
Spd
kts
Gust
kts
22/11:50pm 12.1 12.2 11.6 97 0.3 ENE 2 2 1 1 - - 0.0
22/11:40pm 12.1 11.8 11.6 97 0.3 NE 4 4 2 2 - - 0.0
22/11:30pm 12.1 11.8 11.5 96 0.3 NNE 4 4 2 2 - - 0.0
22/11:20pm 12.3 12.0 11.6 95 0.4 NE 4 7 2 4 - - 0.0
22/11:10pm 12.7 12.1 11.8 94 0.5 ENE 6 7 3 4 - - 0.0
22/11:00pm 13.7 13.2 12.6 93 0.6 ENE 7 9 4 5 - - 0.0
22/10:50pm 13.3 12.3 12.4 94 0.5 ENE 9 9 5 5 - - 0.0
22/10:40pm 12.9 12.3 12.3 96 0.3 ENE 7 9 4 5 - - 0.0
22/10:30pm 12.9 12.9 12.3 96 0.3 NNE 4 7 2 4 - - 0.0
22/10:20pm 12.9 12.8 12.1 95 0.4 NNE 4 6 2 3 - - 0.0
22/10:10pm 13.2 12.8 12.3 94 0.5 NE 6 7 3 4 - - 0.0
22/10:00pm 13.4 12.9 12.5 94 0.5 ENE 7 7 4 4 - - 0.0
22/09:50pm 14.1 13.7 13.1 94 0.6 ENE 7 9 4 5 - - 0.0
22/09:40pm 14.0 13.6 13.0 94 0.6 NE 7 9 4 5 - - 0.0
22/09:30pm 14.4 14.2 13.1 92 0.7 NE 6 6 3 3 - - 0.0
22/09:20pm 14.8 14.7 13.4 91 0.8 NE 6 7 3 4 - - 0.0
22/09:10pm 15.6 15.3 13.2 86 1.4 E 7 9 4 5 - - 0.0
22/09:00pm 15.9 15.8 13.8 87 1.2 E 7 7 4 4 - - 0.0
22/08:50pm 16.4 16.3 13.8 84 1.5 E 7 7 4 4 - - 0.0
22/08:40pm 16.5 16.6 13.8 84 1.6 E 6 7 3 4 - - 0.0
22/08:30pm 16.7 16.6 13.8 83 1.7 E 7 7 4 4 - - 0.0
22/08:20pm 16.8 16.7 13.8 82 1.8 E 7 11 4 6 - - 0.0
22/08:10pm 17.0 16.5 13.9 82 1.8 E 9 11 5 6 - - 0.0
22/08:00pm 17.2 16.7 13.9 81 1.9 E 9 11 5 6 - - 0.0
22/07:50pm 17.4 15.8 13.8 79 2.1 ENE 15 19 8 10 - - 0.0
22/07:40pm 17.5 15.9 13.8 79 2.2 ENE 15 19 8 10 - - 0.0
22/07:30pm 17.8 15.8 13.8 77 2.4 ENE 17 22 9 12 - - 0.0
22/07:20pm 18.1 15.6 14.0 77 2.4 ENE 20 24 11 13 - - 0.0
22/07:10pm 18.4 16.0 14.3 77 2.4 NE 20 22 11 12 - - 0.0
22/07:00pm 18.9 16.7 14.3 74 2.7 NE 19 22 10 12 - - 0.0
22/06:50pm 19.1 16.7 14.5 74 2.8 NE 20 22 11 12 - - 0.0
22/06:40pm 19.3 17.2 14.7 74 2.8 NE 19 22 10 12 - - 0.0
22/06:30pm 19.6 16.6 14.7 73 3.0 NE 24 26 13 14 - - 0.0
22/06:20pm 20.3 18.4 14.1 67 3.7 ENE 17 20 9 11 - - 0.0
22/06:10pm 20.9 19.3 13.9 64 4.2 ENE 15 20 8 11 - - 0.0
22/06:00pm 21.6 21.2 11.2 51 6.0 SE 4 6 2 3 - - 0.0
22/05:50pm 21.6 21.2 11.0 51 6.0 ESE 4 6 2 3 - - 0.0
22/05:40pm 21.8 21.0 11.1 50 6.1 ESE 6 7 3 4 - - 0.0
22/05:30pm 22.2 21.5 11.3 50 6.3 ESE 6 7 3 4 - - 0.0
22/05:20pm 22.3 21.5 10.9 48 6.5 ESE 6 9 3 5 - - 0.0
22/05:10pm 21.8 21.1 11.3 51 6.0 S 6 9 3 5 - - 0.0
22/05:00pm 21.7 21.0 11.3 51 6.0 SE 6 7 3 4 - - 0.0
22/04:50pm 21.9 21.3 11.8 52 5.9 SSW 6 7 3 4 - - 0.0
22/04:40pm 22.1 21.6 11.9 52 5.9 SSE 6 9 3 5 - - 0.0
22/04:30pm 21.9 21.2 11.5 51 6.0 ENE 6 11 3 6 - - 0.0
22/04:20pm 21.6 20.3 11.2 51 6.0 NE 9 13 5 7 - - 0.0
22/04:10pm 21.9 21.4 12.0 53 5.8 SSE 6 11 3 6 - - 0.0
22/04:00pm 21.5 21.2 11.6 53 5.7 SSE 4 6 2 3 - - 0.0
22/03:50pm 21.0 19.8 11.7 55 5.4 SE 9 11 5 6 - - 0.0
22/03:40pm 21.0 19.5 12.0 56 5.2 SE 11 15 6 8 - - 0.0
22/03:30pm 21.4 20.9 12.5 57 5.2 SSE 7 13 4 7 - - 0.0
22/03:20pm 20.8 20.3 12.7 59 4.7 SW 7 13 4 7 - - 0.0
22/03:10pm 20.5 18.8 12.4 59 4.7 SSW 13 15 7 8 - - 0.0
22/03:00pm 20.2 18.5 12.4 61 4.5 SW 13 15 7 8 - - 0.0
22/02:50pm 20.0 18.3 12.6 62 4.3 WSW 13 17 7 9 - - 0.0
22/02:40pm 19.9 18.2 13.7 67 3.7 SW 15 17 8 9 - - 0.0
22/02:30pm 19.5 18.6 13.6 68 3.5 SW 11 15 6 8 - - 0.0
22/02:20pm 19.1 17.5 15.0 77 2.5 WSW 17 20 9 11 - - 0.0
22/02:10pm 19.2 18.4 15.0 76 2.5 WSW 13 15 7 8 - - 0.0
22/02:00pm 19.2 18.0 14.1 72 3.0 WSW 13 17 7 9 - - 0.0
22/01:50pm 20.0 18.1 14.1 69 3.5 WSW 17 19 9 10 - - 0.0
22/01:40pm 21.2 19.5 13.6 62 4.5 WSW 15 19 8 10 - - 0.0
22/01:30pm 21.6 20.3 12.6 56 5.3 WSW 11 15 6 8 - - 0.0
22/01:20pm 21.5 20.9 13.6 60 4.7 SW 9 13 5 7 - - 0.0
22/01:00pm 21.7 19.5 14.5 63 4.4 SW 19 20 10 11 - - 0.0
22/12:50pm 21.5 19.6 15.2 67 3.9 SW 19 20 10 11 - - 0.0
22/12:40pm 20.7 19.1 15.1 70 3.4 WSW 17 19 9 10 - - 0.0
22/12:30pm 19.8 19.1 15.4 76 2.7 SW 13 17 7 9 - - 0.0
22/12:20pm 19.4 18.8 15.7 79 2.3 SSW 13 15 7 8 - - 0.0
22/12:00pm 21.1 20.5 14.7 67 3.9 SW 11 15 6 8 - - 0.0
22/11:50am 21.4 21.8 13.8 62 4.5 WNW 4 7 2 4 - - 0.0
22/11:40am 21.1 21.0 13.8 63 4.4 WSW 7 9 4 5 - - 0.0
22/11:30am 21.3 21.5 14.2 64 4.3 NNW 6 7 3 4 - - 0.0
22/11:20am 21.1 20.3 13.9 63 4.3 NNE 11 17 6 9 - - 0.0
22/11:10am 21.0 20.9 14.0 64 4.2 NE 7 13 4 7 - - 0.0
22/11:00am 20.3 19.9 14.1 67 3.7 ENE 9 13 5 7 - - 0.0
22/10:50am 19.8 18.6 13.9 69 3.5 NNE 13 19 7 10 - - 0.0
22/10:40am 19.9 18.6 13.8 68 3.6 NE 13 19 7 10 - - 0.0
22/10:30am 19.0 17.3 13.6 71 3.2 ENE 15 19 8 10 - - 0.0
22/10:20am 18.8 16.8 13.9 73 2.9 E 17 19 9 10 - - 0.0
22/10:10am 18.7 17.1 13.9 73 2.8 NE 15 20 8 11 - - 0.0
22/10:00am 18.7 17.1 13.9 73 2.8 NE 15 22 8 12 - - 0.0
22/09:50am 18.6 17.8 14.0 74 2.7 NE 11 15 6 8 - - 0.0
22/09:40am 18.6 17.7 13.8 73 2.8 ENE 11 15 6 8 - - 0.0
22/09:30am 18.6 18.5 13.8 73 2.8 NE 7 11 4 6 - - 0.0
22/09:20am 18.8 19.1 14.5 76 2.6 NNE 6 7 3 4 - - 0.0
22/09:10am 19.5 20.1 14.2 71 3.2 E 4 6 2 3 - - 0.0
22/09:00am 18.4 19.3 14.1 76 2.6 S 2 4 1 2 - - 0.0
22/08:50am 17.3 18.1 13.8 80 2.1 SSW 2 4 1 2 - - 0.0
22/08:40am 16.3 17.2 14.1 87 1.3 NNW 2 2 1 1 - - 0.0
22/08:30am 16.2 17.1 14.0 87 1.3 E 2 4 1 2 - - 0.0
22/08:20am 16.1 16.7 14.3 89 1.1 ENE 4 4 2 2 - - 0.0
22/08:10am 16.1 16.6 14.1 88 1.2 ESE 4 4 2 2 - - 0.0
22/08:00am 16.2 16.7 13.9 86 1.3 S 4 4 2 2 - - 0.0
22/07:50am 16.1 17.0 13.9 87 1.3 ESE 2 4 1 2 - - 0.0
22/07:40am 16.2 16.3 13.8 86 1.4 E 6 9 3 5 - - 0.0
22/07:30am 16.2 15.3 13.8 86 1.4 E 11 13 6 7 - - 0.0
22/07:20am 16.2 16.3 13.8 86 1.4 ESE 6 7 3 4 - - 0.0
22/07:10am 16.2 15.7 13.9 86 1.3 E 9 13 5 7 - - 0.0
22/07:00am 16.3 15.8 13.9 86 1.4 ENE 9 11 5 6 - - 0.0
22/06:50am 16.4 15.9 13.9 85 1.5 ENE 9 11 5 6 - - 0.0
22/06:40am 16.4 15.9 13.8 84 1.5 E 9 13 5 7 - - 0.0
22/06:30am 16.4 15.9 13.9 85 1.5 ENE 9 13 5 7 - - 0.0
22/06:20am 16.5 16.1 14.0 85 1.5 NE 9 11 5 6 - - 0.0
22/06:10am 16.5 16.5 14.1 86 1.4 NE 7 9 4 5 - - 0.0
22/06:00am 16.5 16.7 14.3 87 1.3 NE 6 7 3 4 - - 0.0
22/05:50am 16.6 16.9 14.4 87 1.3 NE 6 6 3 3 - - 0.0
22/05:40am 16.6 16.2 14.2 86 1.4 NE 9 11 5 6 - - 0.0
22/05:30am 16.6 16.3 14.3 86 1.4 NE 9 13 5 7 - - 0.0
22/05:20am 16.7 16.7 14.3 86 1.4 NE 7 9 4 5 - - 0.0
22/05:10am 16.7 16.8 14.4 86 1.4 ENE 7 11 4 6 - - 0.0
22/05:00am 16.7 16.7 14.2 85 1.5 ENE 7 9 4 5 - - 0.0
22/04:50am 16.8 17.0 14.2 85 1.5 NE 6 7 3 4 - - 0.0
22/04:40am 16.8 16.4 14.1 84 1.6 ENE 9 11 5 6 - - 0.0
22/04:30am 16.8 16.4 14.1 84 1.6 ENE 9 11 5 6 - - 0.0
22/04:20am 16.8 16.8 14.3 85 1.5 ENE 7 9 4 5 - - 0.0
22/04:10am 16.9 17.0 14.4 85 1.5 ENE 7 9 4 5 - - 0.0
22/04:00am 16.9 16.9 14.3 85 1.5 ENE 7 7 4 4 - - 0.0
22/03:50am 16.9 16.6 14.4 85 1.5 NE 9 11 5 6 - - 0.0
22/03:40am 17.0 17.1 14.5 85 1.5 ENE 7 9 4 5 - - 0.0
22/03:30am 17.0 17.2 14.7 86 1.4 ENE 7 9 4 5 - - 0.0
22/03:20am 17.1 16.9 14.6 85 1.5 ENE 9 11 5 6 - - 0.0
22/03:10am 17.1 17.3 14.6 85 1.5 NE 7 9 4 5 - - 0.0
22/03:00am 17.1 17.9 14.8 86 1.4 ENE 4 6 2 3 - - 0.0
22/02:50am 17.1 17.3 14.6 85 1.5 E 7 9 4 5 - - 0.0
22/02:40am 17.1 17.3 14.6 85 1.5 E 7 9 4 5 - - 0.0
22/02:30am 17.1 17.4 14.6 85 1.5 E 6 7 3 4 - - 0.0
22/02:20am 17.1 16.9 14.8 86 1.4 ENE 9 11 5 6 - - 0.0
22/02:10am 17.1 17.0 15.0 87 1.3 ENE 9 11 5 6 - - 0.0
22/02:00am 17.1 17.4 15.0 87 1.3 ENE 7 9 4 5 - - 0.0
22/01:50am 17.1 17.4 15.0 87 1.3 ENE 7 9 4 5 - - 0.0
22/01:40am 17.0 16.9 15.0 88 1.2 ENE 9 13 5 7 - - 0.0
22/01:30am 16.8 16.7 14.9 88 1.1 ENE 9 13 5 7 - - 0.0
22/01:20am 16.7 17.0 15.0 90 1.0 ENE 7 9 4 5 - - 0.0
22/01:10am 16.8 16.3 15.0 89 1.1 ENE 11 15 6 8 - - 0.0
22/01:00am 16.9 15.6 14.9 88 1.2 ENE 15 20 8 11 - - 0.0
22/12:50am 16.9 16.4 15.0 88 1.1 ENE 11 17 6 9 - - 0.0
22/12:40am 17.0 17.0 15.2 89 1.1 ENE 9 13 5 7 - - 0.0
22/12:30am 17.0 16.6 15.2 89 1.1 ENE 11 13 6 7 - - 0.0
22/12:20am 17.2 17.2 15.2 88 1.2 ENE 9 11 5 6 - - 0.0
22/12:10am 17.3 16.9 15.2 87 1.3 ENE 11 13 6 7 - - 0.0
22/12:00am 17.4 16.9 15.0 86 1.4 ENE 11 15 6 8 - - 0.0
 
Date/Time
EDT
Temp
°C
App
Temp
°C
Dew
Point
°C
Rel
Hum
%
Delta-T
°C
Wind Press
QNH
hPa
Press
MSL
hPa
Rain since
9am
mm
Dir  Spd
km/h
Gust
km/h
Spd
kts
Gust
kts
21/11:50pm 17.4 17.0 15.1 86 1.4 ENE 11 13 6 7 - - 0.0
21/11:40pm 17.5 16.7 15.1 86 1.4 NE 13 17 7 9 - - 0.0
21/11:30pm 17.5 15.9 15.0 85 1.5 NE 17 20 9 11 - - 0.0
21/11:20pm 17.5 17.1 15.1 86 1.4 ENE 11 15 6 8 - - 0.0
21/10:50pm 17.9 16.8 15.3 85 1.6 ENE 15 17 8 9 - - 0.0
21/10:40pm 18.0 18.1 15.4 85 1.6 E 9 11 5 6 - - 0.0
21/10:30pm 18.1 18.2 15.4 84 1.6 E 9 11 5 6 - - 0.0
21/10:20pm 18.0 17.3 15.5 85 1.5 ENE 13 17 7 9 - - 0.0
21/10:10pm 18.1 17.1 15.5 85 1.6 ENE 15 19 8 10 - - 0.0
21/10:00pm 18.1 17.5 15.6 85 1.5 E 13 15 7 8 - - 0.0
21/09:50pm 18.1 17.8 15.5 85 1.6 E 11 13 6 7 - - 0.0
21/09:40pm 18.1 17.9 15.6 85 1.5 E 11 13 6 7 - - 0.0
21/09:30pm 18.2 17.6 15.6 85 1.6 ENE 13 15 7 8 - - 0.0
21/09:20pm 18.2 18.0 15.8 86 1.5 ENE 11 11 6 6 - - 0.0
21/09:10pm 18.3 18.1 15.7 85 1.6 ENE 11 15 6 8 - - 0.0
21/09:00pm 18.4 17.8 15.6 84 1.7 ENE 13 17 7 9 - - 0.0
21/08:50pm 18.4 17.8 15.6 84 1.7 E 13 17 7 9 - - 0.0
21/08:40pm 18.6 18.5 15.9 84 1.7 ENE 11 15 6 8 - - 0.0
21/08:30pm 18.8 18.7 16.0 84 1.7 ENE 11 13 6 7 - - 0.0
21/08:20pm 19.0 18.9 16.0 83 1.8 ENE 11 13 6 7 - - 0.0
21/08:10pm 19.2 19.1 15.9 81 2.0 ENE 11 13 6 7 - - 0.0
21/08:00pm 19.4 18.9 15.8 80 2.2 ENE 13 17 7 9 - - 0.0
21/07:50pm 19.5 18.5 15.6 78 2.4 ENE 15 17 8 9 - - 0.0
21/07:40pm 19.7 19.1 15.7 78 2.5 ENE 13 13 7 7 - - 0.0
21/07:30pm 19.9 19.7 15.6 76 2.6 E 11 13 6 7 - - 0.0
21/07:20pm 20.2 19.2 15.6 75 2.8 ENE 15 15 8 8 - - 0.0
21/07:10pm 20.5 20.7 15.8 74 2.9 E 9 17 5 9 - - 0.0
21/07:00pm 20.8 20.3 15.8 73 3.1 E 13 15 7 8 - - 0.0
21/06:50pm 21.0 20.1 15.8 72 3.2 E 15 19 8 10 - - 0.0
21/06:40pm 21.3 20.3 15.5 69 3.6 ENE 15 19 8 10 - - 0.0
21/06:30pm 21.4 20.0 15.5 69 3.6 ENE 17 20 9 11 - - 0.0
21/06:20pm 21.6 20.5 15.3 67 3.9 ENE 15 19 8 10 - - 0.0
21/06:10pm 21.8 20.7 15.2 66 4.0 ENE 15 19 8 10 - - 0.0
21/06:00pm 22.1 20.5 14.9 63 4.4 E 17 20 9 11 - - 0.0
21/05:50pm 22.5 21.8 14.3 59 5.0 E 11 15 6 8 - - 0.0
21/05:40pm 22.6 21.0 13.9 58 5.2 ENE 15 19 8 10 - - 0.0
21/05:30pm 22.9 20.9 13.8 56 5.5 ENE 17 22 9 12 - - 0.0
21/05:20pm 23.0 21.1 13.1 53 5.9 ENE 15 19 8 10 - - 0.0
21/05:10pm 23.2 21.4 13.2 53 6.0 ENE 15 20 8 11 - - 0.0
21/05:00pm 23.4 22.6 12.9 51 6.2 ENE 9 15 5 8 - - 0.0
21/04:50pm 23.6 22.4 12.8 50 6.4 ENE 11 15 6 8 - - 0.0
21/04:40pm 23.6 21.7 13.1 51 6.3 NE 15 17 8 9 - - 0.0
21/04:30pm 23.8 21.8 12.7 49 6.6 NE 15 19 8 10 - - 0.0
21/04:20pm 23.9 21.2 12.9 50 6.5 NE 19 24 10 13 - - 0.0
21/04:10pm 24.2 22.7 13.0 49 6.7 ENE 13 15 7 8 - - 0.0
21/04:00pm 24.5 22.5 12.7 47 7.0 ENE 15 20 8 11 - - 0.0
21/03:50pm 24.5 22.6 12.9 48 6.9 ENE 15 19 8 10 - - 0.0
21/03:40pm 25.0 22.3 12.9 47 7.2 NE 19 24 10 13 - - 0.0
21/03:30pm 25.5 23.6 13.0 46 7.5 NNE 15 22 8 12 - - 0.0
21/03:20pm 25.2 23.0 13.3 47 7.2 NE 17 24 9 13 - - 0.0
21/03:10pm 25.5 24.4 13.1 46 7.5 NE 11 19 6 10 - - 0.0
21/03:00pm 25.3 23.4 13.1 46 7.3 ENE 15 19 8 10 - - 0.0
21/02:50pm 24.8 22.9 13.1 48 7.0 ENE 15 22 8 12 - - 0.0
21/02:40pm 24.9 23.2 13.6 49 6.8 NE 15 20 8 11 - - 0.0
21/02:30pm 25.1 23.1 13.9 49 6.8 NE 17 20 9 11 - - 0.0
21/02:20pm 24.6 22.8 13.4 49 6.7 NE 15 20 8 11 - - 0.0
21/02:10pm 24.0 23.3 14.2 54 6.0 ENE 11 19 6 10 - - 0.0
21/02:00pm 25.0 25.0 14.3 51 6.5 N 7 13 4 7 - - 0.0
21/01:50pm 24.5 23.3 14.0 52 6.4 NE 13 17 7 9 - - 0.0
21/01:40pm 24.8 24.0 14.1 51 6.5 NE 11 15 6 8 - - 0.0
21/01:30pm 24.3 23.1 14.1 53 6.2 ENE 13 17 7 9 - - 0.0
21/01:20pm 24.1 23.3 13.9 53 6.2 NNE 11 17 6 9 - - 0.0
21/01:10pm 23.5 22.5 14.6 57 5.4 NE 13 17 7 9 - - 0.0
21/01:00pm 23.6 23.0 14.5 56 5.6 E 11 19 6 10 - - 0.0
21/12:50pm 23.1 22.1 14.5 58 5.2 ENE 13 15 7 8 - - 0.0
21/12:40pm 22.4 21.2 14.1 59 5.0 ENE 13 15 7 8 - - 0.0
21/12:30pm 22.5 21.9 14.6 61 4.8 ENE 11 17 6 9 - - 0.0
21/12:20pm 23.1 22.5 14.5 58 5.2 NE 11 15 6 8 - - 0.0
21/12:10pm 23.1 22.4 14.4 58 5.3 NNE 11 19 6 10 - - 0.0
21/12:00pm 22.7 22.2 14.9 61 4.8 NE 11 19 6 10 - - 0.0
21/11:50am 22.9 21.6 14.8 60 5.0 NE 15 17 8 9 - - 0.0
21/11:40am 22.7 21.7 14.6 60 4.9 NE 13 17 7 9 - - 0.0
21/11:30am 22.1 21.0 14.3 61 4.7 NE 13 17 7 9 - - 0.0
21/11:20am 21.8 20.7 14.3 62 4.5 ENE 13 19 7 10 - - 0.0
21/11:10am 21.5 20.1 14.6 65 4.2 NE 15 19 8 10 - - 0.0
21/11:00am 21.6 20.5 14.4 63 4.4 NE 13 19 7 10 - - 0.0
21/10:50am 21.6 20.2 14.4 63 4.4 NE 15 17 8 9 - - 0.0
21/10:40am 21.1 21.2 13.9 63 4.3 E 6 11 3 6 - - 0.0
21/10:30am 21.1 21.3 14.7 67 3.9 E 7 11 4 6 - - 0.0
21/10:20am 20.7 20.7 14.3 66 3.8 N 7 9 4 5 - - 0.0
21/10:10am 20.2 20.4 14.3 69 3.5 S 6 9 3 5 - - 0.0
21/10:00am 19.7 20.5 14.7 73 3.0 SE 4 7 2 4 - - 0.0
21/09:50am 19.6 20.0 14.7 73 3.0 WSW 6 7 3 4 - - 0.0
21/09:40am 19.2 19.5 15.0 76 2.5 SW 7 9 4 5 - - 0.0
21/09:30am 19.5 19.9 15.3 76 2.6 S 7 9 4 5 - - 0.0
21/09:20am 19.1 19.9 14.7 75 2.6 ESE 4 6 2 3 - - 0.0
21/09:10am 17.9 18.1 14.3 79 2.1 SSE 6 7 3 4 - - 0.0
21/09:00am 17.9 18.1 14.3 79 2.1 SSE 6 6 3 3 - - 0.0
21/08:50am 17.6 18.4 14.7 83 1.7 S 4 6 2 3 - - 0.0
21/08:40am 17.3 18.5 14.8 85 1.5 WNW 2 4 1 2 - - 0.0
21/08:30am 16.8 17.9 14.5 86 1.4 NNE 2 2 1 1 - - 0.0
21/08:20am 16.3 17.3 14.3 88 1.2 ENE 2 2 1 1 - - 0.0
21/08:10am 15.1 15.7 14.2 94 0.5 ENE 4 4 2 2 - - 0.0
21/08:00am 14.2 14.6 13.7 97 0.3 NNE 4 6 2 3 - - 0.0
21/07:50am 13.9 13.9 13.6 98 0.2 ENE 6 6 3 3 - - 0.0
21/07:40am 12.6 12.2 12.3 98 0.2 NE 6 7 3 4 - - 0.0
21/07:30am 11.9 11.3 11.7 99 0.1 NNE 6 7 3 4 - - 0.0
21/07:20am 12.0 11.4 11.7 98 0.2 NE 6 6 3 3 - - 0.0
21/07:10am 11.9 11.3 11.6 98 0.2 ENE 6 6 3 3 - - 0.0
21/07:00am 13.0 12.5 12.8 99 0.1 E 7 7 4 4 - - 0.0
21/06:50am 12.3 11.8 12.1 99 0.1 NE 6 6 3 3 - - 0.0
21/06:40am 12.5 12.0 12.2 98 0.2 NNE 6 7 3 4 - - 0.0
21/06:30am 12.4 11.9 12.0 97 0.2 NNE 6 7 3 4 - - 0.0
21/06:20am 13.0 13.5 12.7 98 0.2 E 2 2 1 1 - - 0.0
21/06:10am 13.5 14.1 13.2 98 0.2 NNE 2 4 1 2 - - 0.0
21/06:00am 13.8 14.1 13.4 97 0.2 NE 4 6 2 3 - - 0.0
21/05:50am 14.1 14.1 13.7 97 0.2 NE 6 6 3 3 - - 0.0
21/05:40am 14.3 14.8 13.9 97 0.2 NE 4 6 2 3 - - 0.0
21/05:30am 14.6 15.2 14.3 98 0.2 NE 4 4 2 2 - - 0.0
21/05:20am 14.6 14.8 14.3 98 0.2 NE 6 6 3 3 - - 0.0
21/05:10am 14.5 15.1 14.3 99 0.1 NNE 4 4 2 2 - - 0.0
21/05:00am 14.3 15.2 14.1 99 0.1 N 2 4 1 2 - - 0.0
21/04:50am 14.3 14.8 14.0 98 0.2 NNE 4 4 2 2 - - 0.0
21/04:40am 14.1 14.6 13.9 99 0.1 NE 4 4 2 2 - - 0.0
21/04:30am 13.8 14.6 13.6 99 0.1 NE 2 2 1 1 - - 0.0
21/04:20am 13.7 14.8 13.5 99 0.1 CALM 0 2 0 1 - - 0.0
21/04:10am 13.7 14.4 13.5 99 0.1 SSW 2 2 1 1 - - 0.0
21/04:00am 13.3 13.9 13.1 99 0.1 ENE 2 2 1 1 - - 0.0
21/03:50am 13.1 13.6 12.8 98 0.2 ENE 2 4 1 2 - - 0.0
21/03:40am 13.4 14.0 13.1 98 0.2 WSW 2 4 1 2 - - 0.0
21/03:30am 13.6 13.9 13.3 98 0.2 SSW 4 6 2 3 - - 0.0
21/03:20am 13.8 14.1 13.4 97 0.2 ENE 4 6 2 3 - - 0.0
21/03:10am 13.8 13.2 13.5 98 0.2 NE 9 11 5 6 - - 0.0
21/03:00am 13.6 12.9 13.3 98 0.2 NE 9 11 5 6 - - 0.0
21/02:50am 13.6 13.8 13.2 97 0.2 NE 4 6 2 3 - - 0.0
21/02:40am 13.8 14.5 13.4 97 0.2 ESE 2 2 1 1 - - 0.0
21/02:30am 14.1 14.9 13.8 98 0.2 SSW 2 4 1 2 - - 0.0
21/02:20am 14.0 14.8 13.6 97 0.2 SE 2 2 1 1 - - 0.0
21/02:10am 13.8 14.0 13.2 96 0.3 NNW 4 6 2 3 - - 0.0
21/02:00am 14.4 14.5 13.9 97 0.3 NE 6 6 3 3 - - 0.0
21/01:50am 14.2 14.2 13.6 96 0.3 NE 6 6 3 3 - - 0.0
21/01:40am 14.6 15.1 13.9 96 0.4 NE 4 6 2 3 - - 0.0
21/01:30am 14.7 15.2 14.0 96 0.4 E 4 6 2 3 - - 0.0
21/01:20am 15.6 15.8 14.1 91 0.9 E 6 6 3 3 - - 0.0
21/01:10am 16.0 16.4 14.7 92 0.8 E 6 6 3 3 - - 0.0
21/01:00am 15.9 16.3 14.8 93 0.7 E 6 6 3 3 - - 0.0
21/12:50am 16.0 16.5 14.9 93 0.7 ENE 6 6 3 3 - - 0.0
21/12:40am 15.8 16.3 14.9 94 0.5 ENE 6 6 3 3 - - 0.0
21/12:30am 15.7 16.1 14.8 94 0.5 NE 6 6 3 3 - - 0.0
21/12:20am 15.8 16.3 14.9 94 0.5 ENE 6 7 3 4 - - 0.0
21/12:10am 15.5 15.7 14.7 95 0.5 NE 7 7 4 4 - - 0.0
21/12:00am 15.2 15.5 14.6 96 0.4 NE 6 7 3 4 - - 0.0
 
Date/Time
EDT
Temp
°C
App
Temp
°C
Dew
Point
°C
Rel
Hum
%
Delta-T
°C
Wind Press
QNH
hPa
Press
MSL
hPa
Rain since
9am
mm
Dir  Spd
km/h
Gust
km/h
Spd
kts
Gust
kts
20/11:50pm 15.3 16.0 14.5 95 0.5 NE 4 6 2 3 - - 0.0
20/11:40pm 15.5 16.2 14.5 94 0.6 N 4 7 2 4 - - 0.0
20/11:30pm 16.1 16.9 14.7 91 0.8 N 4 7 2 4 - - 0.0
20/11:20pm 16.5 16.9 14.8 90 1.0 E 6 7 3 4 - - 0.0
20/11:10pm 16.6 16.8 14.8 89 1.1 E 7 11 4 6 - - 0.0
20/11:00pm 16.6 16.5 15.0 90 1.0 E 9 9 5 5 - - 0.0
20/10:50pm 16.8 17.1 15.1 90 1.0 E 7 7 4 4 - - 0.0
20/10:40pm 16.8 17.2 15.2 90 1.0 ESE 7 9 4 5 - - 0.0
20/10:30pm 17.1 17.7 15.2 88 1.1 E 6 7 3 4 - - 0.0
20/10:20pm 17.3 17.7 15.2 87 1.3 E 7 9 4 5 - - 0.0
20/10:00pm 17.7 17.3 15.2 85 1.5 ENE 11 13 6 7 - - 0.0
20/09:50pm 17.8 17.4 15.3 85 1.5 ENE 11 13 6 7 - - 0.0
20/09:40pm 18.1 17.0 15.3 84 1.7 ENE 15 19 8 10 - - 0.0
20/09:30pm 18.2 17.1 15.4 84 1.7 ENE 15 17 8 9 - - 0.0
20/09:20pm 18.4 17.3 15.4 83 1.8 ENE 15 19 8 10 - - 0.0
20/09:10pm 18.5 17.1 15.6 83 1.8 ENE 17 20 9 11 - - 0.0
20/09:00pm 18.4 17.4 15.6 84 1.7 ENE 15 19 8 10 - - 0.0
20/08:50pm 18.4 17.0 15.6 84 1.7 ENE 17 17 9 9 - - 0.0
20/08:40pm 18.5 17.1 15.6 83 1.8 ENE 17 20 9 11 - - 0.0
20/08:30pm 18.6 17.3 15.7 83 1.8 ENE 17 19 9 10 - - 0.0
20/08:20pm 18.8 17.5 15.7 82 1.9 ENE 17 19 9 10 - - 0.0
20/08:10pm 19.1 17.8 15.7 80 2.1 ENE 17 17 9 9 - - 0.0
20/08:00pm 19.4 18.1 15.7 79 2.3 ENE 17 19 9 10 - - 0.0
20/07:50pm 19.7 18.4 15.9 79 2.3 ENE 17 22 9 12 - - 0.0
20/07:40pm 20.1 19.2 15.8 76 2.6 ENE 15 19 8 10 - - 0.0
20/07:30pm 20.4 18.9 15.4 73 3.1 ENE 17 19 9 10 - - 0.0
20/07:20pm 20.6 19.9 15.3 71 3.2 ENE 13 15 7 8 - - 0.0
20/07:10pm 21.0 19.8 15.1 69 3.6 ENE 15 19 8 10 - - 0.0
20/07:00pm 21.2 19.9 14.8 67 3.9 ENE 15 17 8 9 - - 0.0
20/06:50pm 21.5 19.4 14.7 65 4.1 ENE 19 20 10 11 - - 0.0
20/06:40pm 21.9 20.2 14.6 63 4.4 ENE 17 19 9 10 - - 0.0
20/06:30pm 22.3 21.3 14.6 61 4.7 ENE 13 17 7 9 - - 0.0
20/06:20pm 22.6 21.0 13.8 57 5.3 ENE 15 19 8 10 - - 0.0
20/06:10pm 22.9 21.3 14.0 57 5.4 ENE 15 20 8 11 - - 0.0
20/06:00pm 23.2 21.6 14.0 56 5.6 ENE 15 20 8 11 - - 0.0
20/05:50pm 23.4 22.1 13.8 54 5.8 ENE 13 17 7 9 - - 0.0
20/05:40pm 23.4 21.3 13.7 54 5.8 ENE 17 19 9 10 - - 0.0
20/05:30pm 23.7 21.7 13.8 53 6.0 ENE 17 19 9 10 - - 0.0
20/05:20pm 24.1 22.1 13.8 52 6.2 ENE 17 20 9 11 - - 0.0
20/05:10pm 24.5 23.2 13.6 50 6.6 NNE 13 15 7 8 - - 0.0
20/05:00pm 25.1 23.7 13.5 48 7.0 NE 13 17 7 9 - - 0.0
20/04:50pm 25.2 23.4 13.3 47 7.2 ENE 15 19 8 10 - - 0.0
20/04:40pm 24.9 23.0 13.1 48 7.1 ENE 15 19 8 10 - - 0.0
20/04:30pm 25.1 22.5 13.3 48 7.1 ENE 19 22 10 12 - - 0.0
20/04:20pm 24.9 24.5 13.1 48 7.1 E 7 15 4 8 - - 0.0
20/04:10pm 25.2 25.0 11.9 43 7.8 NE 4 9 2 5 - - 0.0
20/04:00pm 25.3 24.8 12.2 44 7.8 SE 6 9 3 5 - - 0.0
20/03:50pm 26.2 24.7 11.9 41 8.5 SE 11 13 6 7 - - 0.0
20/03:40pm 25.9 24.2 12.5 43 8.0 ENE 13 19 7 10 - - 0.0
20/03:30pm 25.7 25.1 12.2 43 8.0 NNE 7 11 4 6 - - 0.0
20/03:20pm 25.6 24.2 12.3 43 7.9 NNE 11 13 6 7 - - 0.0
20/03:10pm 25.7 25.2 12.6 44 7.8 ENE 7 11 4 6 - - 0.0
20/03:00pm 25.0 23.3 12.5 45 7.4 NE 13 15 7 8 - - 0.0
20/02:50pm 25.1 23.9 12.7 46 7.4 NE 11 15 6 8 - - 0.0
20/02:40pm 24.0 22.3 12.5 48 6.8 NE 13 20 7 11 - - 0.0
20/02:30pm 24.8 23.1 12.5 46 7.3 E 13 20 7 11 - - 0.0
20/02:20pm 25.4 23.7 12.5 44 7.7 NE 13 17 7 9 - - 0.0
20/02:10pm 25.7 25.1 13.6 47 7.3 E 9 17 5 9 - - 0.0
20/02:00pm 24.7 24.0 11.5 43 7.7 SSW 6 9 3 5 - - 0.0
20/01:50pm 24.8 23.7 11.8 44 7.6 SE 9 13 5 7 - - 0.0
20/01:40pm 25.0 24.7 11.4 42 7.9 ENE 4 6 2 3 - - 0.0
20/01:30pm 24.2 23.9 11.3 44 7.5 N 4 7 2 4 - - 0.0
20/01:20pm 23.4 22.7 11.3 46 7.0 NNW 6 7 3 4 - - 0.0
20/01:10pm 23.7 22.8 11.4 46 7.1 SE 7 9 4 5 - - 0.0
20/01:00pm 23.9 23.4 12.0 47 7.0 SSE 6 9 3 5 - - 0.0
20/12:50pm 24.2 23.9 12.6 48 6.9 WNW 6 7 3 4 - - 0.0
20/12:40pm 23.6 23.2 12.4 49 6.6 N 6 9 3 5 - - 0.0
20/12:30pm 23.8 22.9 12.5 49 6.7 SW 9 11 5 6 - - 0.0
20/12:20pm 24.0 23.3 12.0 47 7.0 SW 7 11 4 6 - - 0.0
20/12:10pm 23.3 22.7 11.8 48 6.7 SE 6 9 3 5 - - 0.0
20/12:00pm 23.6 22.7 12.7 50 6.5 SSE 9 13 5 7 - - 0.0
20/11:50am 23.8 24.0 12.9 50 6.5 SSE 4 9 2 5 - - 0.0
20/11:40am 23.2 22.4 12.9 52 6.1 E 9 17 5 9 - - 0.0
20/11:30am 23.2 23.1 13.3 53 5.9 S 6 9 3 5 - - 0.0
20/11:20am 22.3 22.1 13.5 57 5.3 SE 7 13 4 7 - - 0.0
20/11:10am 22.1 21.1 13.4 57 5.2 S 11 15 6 8 - - 0.0
20/11:00am 21.7 20.9 12.9 57 5.2 S 9 13 5 7 - - 0.0
20/10:50am 21.5 21.4 13.3 59 4.9 WSW 6 9 3 5 - - 0.0
20/10:40am 21.0 21.0 14.1 64 4.1 SW 7 9 4 5 - - 0.0
20/10:30am 20.5 20.4 13.9 66 3.9 SW 7 9 4 5 - - 0.0
20/10:20am 20.0 20.1 14.4 70 3.4 SW 7 7 4 4 - - 0.0
20/10:00am 20.0 20.5 14.0 68 3.6 SSE 4 7 2 4 - - 0.0
20/09:50am 19.5 19.6 14.0 70 3.3 SE 6 7 3 4 - - 0.0
20/09:40am 18.8 19.0 14.1 74 2.8 SW 6 7 3 4 - - 0.0
20/09:30am 18.4 18.6 14.3 77 2.4 WSW 6 6 3 3 - - 0.0
20/09:20am 17.9 18.4 14.0 78 2.3 W 4 4 2 2 - - 0.0
20/09:10am 17.1 18.1 14.4 84 1.6 NW 2 4 1 2 - - 0.0
20/09:00am 16.2 17.3 14.5 90 1.0 NNE 2 2 1 1 - - 0.0
20/08:50am 15.5 17.2 15.1 97 0.2 CALM 0 2 0 1 - - 0.0
20/08:40am 14.9 16.4 14.6 98 0.2 CALM 0 2 0 1 - - 0.0
20/08:30am 14.4 15.7 14.1 98 0.2 CALM 0 2 0 1 - - 0.0
20/08:20am 13.8 14.6 13.6 99 0.1 NNE 2 2 1 1 - - 0.0
20/08:10am 13.1 13.6 12.9 99 0.1 NE 2 2 1 1 - - 0.0
20/08:00am 12.6 13.0 12.4 99 0.1 ENE 2 2 1 1 - - 0.0
20/07:50am 12.2 12.5 12.1 99 0.1 NE 2 4 1 2 - - 0.0
20/07:40am 11.9 11.7 11.7 99 0.1 NE 4 4 2 2 - - 0.0
20/07:30am 11.6 11.3 11.4 99 0.1 NE 4 4 2 2 - - 0.0
20/07:20am 11.2 10.4 11.1 99 0.1 NE 6 6 3 3 - - 0.0
20/07:10am 11.2 11.2 11.1 99 0.1 E 2 2 1 1 - - 0.0
20/07:00am 11.1 11.0 10.9 99 0.1 SE 2 2 1 1 - - 0.0
20/06:50am 11.3 11.3 11.2 99 0.1 NE 2 2 1 1 - - 0.0
20/06:40am 11.5 11.5 11.3 99 0.1 NNE 2 2 1 1 - - 0.0
20/06:30am 11.7 11.8 11.5 99 0.1 SSE 2 2 1 1 - - 0.0
20/06:20am 11.8 12.0 11.7 99 0.1 ENE 2 4 1 2 - - 0.0
20/06:10am 12.0 11.8 11.9 99 0.1 ENE 4 4 2 2 - - 0.0
20/06:00am 12.1 11.6 12.0 99 0.1 NE 6 7 3 4 - - 0.0
20/05:50am 11.8 11.5 11.6 99 0.1 NE 4 6 2 3 - - 0.0
20/05:40am 12.1 11.6 12.0 99 0.1 ENE 6 7 3 4 - - 0.0
20/05:30am 11.6 11.3 11.4 99 0.1 NE 4 6 2 3 - - 0.0

Other formats

Comma delimited format used in spreadsheet applications
http://www.bom.gov.au/fwo/IDN60801/IDN60801.99764.axf

JavaScript Object Notation format (JSON) in row-major order
http://www.bom.gov.au/fwo/IDN60801/IDN60801.99764.json

Data quality

Most of these data are generated automatically and are frequently updated. Quality checks on data are not normally performed. It is possible for incorrect values to appear. Refer to information at About Latest Weather Observations and please check the disclaimer before using these data.